Navigator Of The Seas — C6FU4 — position and weather

sailwx.info

Track history (hours):
 
Tides and Currents Weather Stations Pressure Air Temp Water Temp Dewpoint Dewpoint Depression Visibility Wind Speed Wind Dir Waves Ship Positions

Navigator Of The Seas

Operator: Royal Caribbean Cruises Ltd

Last reported at 2017-Nov-20 16:00 UTC. Time now 2017-Nov-20 18:53 UTC.
Position N 22°54' W 083°42'.

Type: Passenger vessel. MMSI: 311478000.

Wind from 140 at 11 knots

Barometer 1018.1 mb
Air temperature 25.0 ° C
Visibility: greater than 10.8 NM

Date/timePositionNaut miles runAvg speedWind from/ knotsBaromVisibWave heightAir tempDewpointWater temp
2017-Nov-20 16:00N 22°54' W 083°42'25516.5 140 / 111018.110.8 25.0
2017-Nov-20 00:31N 25°30' W 080°01'816.7
2017-Nov-20 00:01N 25°38' W 080°01'814.9
2017-Nov-19 23:30N 25°45' W 080°04'5 9.9
2017-Nov-19 23:00N 25°46' W 080°09'2 2.7
2017-Nov-19 22:26N 25°47' W 080°11'0 0.0
2017-Nov-19 21:59N 25°47' W 080°11'0 0.0
2017-Nov-19 21:26N 25°47' W 080°11'0 0.0
2017-Nov-19 20:59N 25°47' W 080°11'0 0.0
2017-Nov-19 20:29N 25°47' W 080°11'0 0.0
2017-Nov-19 19:59N 25°47' W 080°11'0 0.0
2017-Nov-19 19:29N 25°47' W 080°11'0 0.0
2017-Nov-19 18:59N 25°47' W 080°11'0 0.0
2017-Nov-19 18:29N 25°47' W 080°11'0 0.0
2017-Nov-19 17:59N 25°47' W 080°11'0 0.0
2017-Nov-19 17:29N 25°47' W 080°11'0 0.0
2017-Nov-19 16:59N 25°47' W 080°11'0 0.0
2017-Nov-19 16:26N 25°47' W 080°11'0 0.0
2017-Nov-19 15:59N 25°47' W 080°11'0 0.0
2017-Nov-19 15:29N 25°47' W 080°11'0 0.0
2017-Nov-19 14:59N 25°47' W 080°11'0 0.0
2017-Nov-19 14:29N 25°47' W 080°11'0 0.0
2017-Nov-19 13:59N 25°47' W 080°11'0 0.0
2017-Nov-19 13:23N 25°47' W 080°11'0 0.0
2017-Nov-19 12:56N 25°47' W 080°11'0 0.0
2017-Nov-19 12:29N 25°47' W 080°11'0 0.5
2017-Nov-19 12:00N 25°47' W 080°11'2 3.6
2017-Nov-19 11:31N 25°46' W 080°09'511.0
2017-Nov-19 11:00N 25°47' W 080°03'1 2.5
2017-Nov-19 10:31N 25°46' W 080°04'815.0
2017-Nov-19 10:00N 25°50' W 079°57'918.2
2017-Nov-19 09:30N 25°59' W 079°55'918.4
2017-Nov-19 09:00N 26°08' W 079°53'918.6
2017-Nov-19 08:30N 26°18' W 079°52'917.8
2017-Nov-19 08:01N 26°26' W 079°51'917.9
2017-Nov-19 07:31N 26°35' W 079°50'918.0
2017-Nov-19 07:01N 26°44' W 079°49'917.7
2017-Nov-19 06:31N 26°53' W 079°48'917.5
2017-Nov-19 06:01N 27°02' W 079°47'321 8.4
2017-Nov-17 16:00N 31°36' W 076°36'13416.8 050 / 151020.110.8 23.0
2017-Nov-17 08:00N 33°30' W 075°12'25015.6 360 / 261018.110.8 19.0 24.0
2017-Nov-16 16:00N 37°30' W 073°48'15115.4 270 / 301015.110.8 15.0
2017-Nov-16 06:12N 39°59' W 073°19'314.6
2017-Nov-16 06:00N 40°02' W 073°21'3312.0
2017-Nov-16 03:14N 40°27' W 073°50'8 9.8
2017-Nov-16 02:26N 40°31' W 073°59'715.5
2017-Nov-16 02:00N 40°36' W 074°03'612.2
2017-Nov-16 01:30N 40°42' W 074°02'4 6.8
2017-Nov-16 00:57N 40°46' W 073°60'0 0.0
2017-Nov-16 00:30N 40°46' W 073°60'0 0.0
2017-Nov-16 00:00N 40°46' W 073°60'0 0.0
2017-Nov-15 23:30N 40°46' W 073°60'0 0.0
2017-Nov-15 22:57N 40°46' W 073°60'0 0.0
2017-Nov-15 22:27N 40°46' W 073°60'0 0.0
2017-Nov-15 21:57N 40°46' W 073°60'0 0.0
2017-Nov-15 21:27N 40°46' W 073°60'0 0.0
2017-Nov-15 20:54N 40°46' W 073°60'0 0.0
2017-Nov-15 20:18N 40°46' W 073°60'0 0.0
2017-Nov-15 20:00N 40°46' W 073°60'0 0.0
2017-Nov-15 19:30N 40°46' W 073°60'0 0.0
2017-Nov-15 19:00N 40°46' W 073°60'0 0.0
2017-Nov-15 18:30N 40°46' W 073°60'0 0.0
2017-Nov-15 18:00N 40°46' W 073°60'0 0.0
2017-Nov-15 17:30N 40°46' W 073°60'0 0.0
2017-Nov-15 16:57N 40°46' W 073°60'0 0.0
2017-Nov-15 16:30N 40°46' W 073°60'0 0.0
2017-Nov-15 16:00N 40°46' W 073°60'0 0.0
2017-Nov-15 15:30N 40°46' W 073°60'0 0.0
2017-Nov-15 15:00N 40°46' W 073°60'0 0.0
2017-Nov-15 14:30N 40°46' W 073°60'0 0.0
2017-Nov-15 14:00N 40°46' W 073°60'0 0.0
2017-Nov-15 13:30N 40°46' W 073°60'0 0.0
2017-Nov-15 13:00N 40°46' W 073°60'0 0.0
2017-Nov-15 12:30N 40°46' W 073°60'0 0.0
2017-Nov-15 12:00N 40°46' W 073°60'0 0.0
2017-Nov-15 11:30N 40°46' W 073°60'0 0.0
2017-Nov-15 11:00N 40°46' W 073°60'0 0.0
2017-Nov-15 10:30N 40°46' W 073°60'0 0.0
2017-Nov-15 10:00N 40°46' W 073°60'0 0.0
2017-Nov-15 09:30N 40°46' W 073°60'0 0.0
2017-Nov-15 09:00N 40°46' W 073°60'0 0.0
2017-Nov-15 08:30N 40°46' W 073°60'0 0.0
2017-Nov-15 08:00N 40°46' W 073°60'0 0.0
2017-Nov-15 07:30N 40°46' W 073°60'0 0.0
2017-Nov-15 07:00N 40°46' W 073°60'0 0.0
2017-Nov-15 06:27N 40°46' W 073°60'0 0.0
2017-Nov-15 06:00N 40°46' W 073°60'0 0.0
2017-Nov-15 05:30N 40°46' W 073°60'0 0.0
2017-Nov-15 05:00N 40°46' W 073°60'0 0.0
2017-Nov-15 04:27N 40°46' W 073°60'0 0.0
2017-Nov-15 04:00N 40°46' W 073°60'0 0.0
2017-Nov-15 03:30N 40°46' W 073°60'0 0.0
2017-Nov-15 03:00N 40°46' W 073°60'0 0.0
2017-Nov-15 02:27N 40°46' W 073°60'0 0.0
2017-Nov-15 02:00N 40°46' W 073°60'0 0.0
2017-Nov-15 01:27N 40°46' W 073°60'0 0.0
2017-Nov-15 01:00N 40°46' W 073°60'0 0.0
2017-Nov-15 00:30N 40°46' W 073°60'0 0.0
2017-Nov-14 23:57N 40°46' W 073°60'0 0.0
2017-Nov-14 23:24N 40°46' W 073°60'0 0.0
2017-Nov-14 22:57N 40°46' W 073°60'0 0.0
2017-Nov-14 22:27N 40°46' W 073°60'0 0.0
2017-Nov-14 22:00N 40°46' W 073°60'0 0.0
2017-Nov-14 21:30N 40°46' W 073°60'0 0.2
2017-Nov-14 21:01N 40°46' W 074°00'1 2.2
2017-Nov-14 20:31N 40°45' W 074°01'510.0
2017-Nov-14 20:01N 40°40' W 074°03'612.5
2017-Nov-14 19:30N 40°34' W 074°02'815.2
2017-Nov-14 19:00N 40°29' W 073°54'510.4
2017-Nov-14 18:30N 40°27' W 073°48'5 8.8
2017-Nov-14 17:54N 40°27' W 073°41'6817.4
2017-Nov-14 14:00N 40°24' W 072°12'8220.6 050 / 271026.1 5.4 10.0
2017-Nov-14 10:00N 40°30' W 070°24'10512.1 050 / 261023.010.8 11.0 14.0
2017-Nov-14 01:14N 42°14' W 069°60'2417.3
2017-Nov-13 23:52N 42°19' W 070°31'718.3
2017-Nov-13 23:30N 42°20' W 070°40'918.0
2017-Nov-13 23:00N 42°23' W 070°52'611.2
2017-Nov-13 22:30N 42°20' W 070°58'3 5.9
2017-Nov-13 22:00N 42°21' W 071°02'39612.4
2017-Nov-12 14:00N 42°24' W 062°06'10617.7 350 / 91032.110.8 9.0
2017-Nov-12 08:00N 42°24' W 059°42'37221.9 360 / 141030.110.8 7.0 14.0
2017-Nov-11 15:00N 42°36' W 051°18'11519.1 330 / 101014.1 1.1 18.0
2017-Nov-11 09:00N 42°42' W 048°42'   180 / 401016.310.8
Track history (hours):
 
Tides and Currents Weather Stations Pressure Air Temp Water Temp Dewpoint Dewpoint Depression Visibility Wind Speed Wind Dir Waves Ship Positions

Navigator Of The Seas

Operator: Royal Caribbean Cruises Ltd

Last reported at 2017-Nov-20 16:00 UTC. Time now 2017-Nov-20 18:53 UTC.
Position N 22°54' W 083°42'.

Type: Passenger vessel. MMSI: 311478000.

Wind from 140 at 11 knots

Barometer 1018.1 mb
Air temperature 25.0 ° C
Visibility: greater than 10.8 NM

Date/timePositionNaut miles runAvg speedWind from/ knotsBaromVisibWave heightAir tempDewpointWater temp
2017-Nov-20 16:00N 22°54' W 083°42'25516.5 140 / 111018.110.8 25.0
2017-Nov-20 00:31N 25°30' W 080°01'816.7
2017-Nov-20 00:01N 25°38' W 080°01'814.9
2017-Nov-19 23:30N 25°45' W 080°04'5 9.9
2017-Nov-19 23:00N 25°46' W 080°09'2 2.7
2017-Nov-19 22:26N 25°47' W 080°11'0 0.0
2017-Nov-19 21:59N 25°47' W 080°11'0 0.0
2017-Nov-19 21:26N 25°47' W 080°11'0 0.0
2017-Nov-19 20:59N 25°47' W 080°11'0 0.0
2017-Nov-19 20:29N 25°47' W 080°11'0 0.0
2017-Nov-19 19:59N 25°47' W 080°11'0 0.0
2017-Nov-19 19:29N 25°47' W 080°11'0 0.0
2017-Nov-19 18:59N 25°47' W 080°11'0 0.0
2017-Nov-19 18:29N 25°47' W 080°11'0 0.0
2017-Nov-19 17:59N 25°47' W 080°11'0 0.0
2017-Nov-19 17:29N 25°47' W 080°11'0 0.0
2017-Nov-19 16:59N 25°47' W 080°11'0 0.0
2017-Nov-19 16:26N 25°47' W 080°11'0 0.0
2017-Nov-19 15:59N 25°47' W 080°11'0 0.0
2017-Nov-19 15:29N 25°47' W 080°11'0 0.0
2017-Nov-19 14:59N 25°47' W 080°11'0 0.0
2017-Nov-19 14:29N 25°47' W 080°11'0 0.0
2017-Nov-19 13:59N 25°47' W 080°11'0 0.0
2017-Nov-19 13:23N 25°47' W 080°11'0 0.0
2017-Nov-19 12:56N 25°47' W 080°11'0 0.0
2017-Nov-19 12:29N 25°47' W 080°11'0 0.5
2017-Nov-19 12:00N 25°47' W 080°11'2 3.6
2017-Nov-19 11:31N 25°46' W 080°09'511.0
2017-Nov-19 11:00N 25°47' W 080°03'1 2.5
2017-Nov-19 10:31N 25°46' W 080°04'815.0
2017-Nov-19 10:00N 25°50' W 079°57'918.2
2017-Nov-19 09:30N 25°59' W 079°55'918.4
2017-Nov-19 09:00N 26°08' W 079°53'918.6
2017-Nov-19 08:30N 26°18' W 079°52'917.8
2017-Nov-19 08:01N 26°26' W 079°51'917.9
2017-Nov-19 07:31N 26°35' W 079°50'918.0
2017-Nov-19 07:01N 26°44' W 079°49'917.7
2017-Nov-19 06:31N 26°53' W 079°48'917.5
2017-Nov-19 06:01N 27°02' W 079°47'321 8.4
2017-Nov-17 16:00N 31°36' W 076°36'13416.8 050 / 151020.110.8 23.0
2017-Nov-17 08:00N 33°30' W 075°12'25015.6 360 / 261018.110.8 19.0 24.0
2017-Nov-16 16:00N 37°30' W 073°48'15115.4 270 / 301015.110.8 15.0
2017-Nov-16 06:12N 39°59' W 073°19'314.6
2017-Nov-16 06:00N 40°02' W 073°21'3312.0
2017-Nov-16 03:14N 40°27' W 073°50'8 9.8
2017-Nov-16 02:26N 40°31' W 073°59'715.5
2017-Nov-16 02:00N 40°36' W 074°03'612.2
2017-Nov-16 01:30N 40°42' W 074°02'4 6.8
2017-Nov-16 00:57N 40°46' W 073°60'0 0.0
2017-Nov-16 00:30N 40°46' W 073°60'0 0.0
2017-Nov-16 00:00N 40°46' W 073°60'0 0.0
2017-Nov-15 23:30N 40°46' W 073°60'0 0.0
2017-Nov-15 22:57N 40°46' W 073°60'0 0.0
2017-Nov-15 22:27N 40°46' W 073°60'0 0.0
2017-Nov-15 21:57N 40°46' W 073°60'0 0.0
2017-Nov-15 21:27N 40°46' W 073°60'0 0.0
2017-Nov-15 20:54N 40°46' W 073°60'0 0.0
2017-Nov-15 20:18N 40°46' W 073°60'0 0.0
2017-Nov-15 20:00N 40°46' W 073°60'0 0.0
2017-Nov-15 19:30N 40°46' W 073°60'0 0.0
2017-Nov-15 19:00N 40°46' W 073°60'0 0.0
2017-Nov-15 18:30N 40°46' W 073°60'0 0.0
2017-Nov-15 18:00N 40°46' W 073°60'0 0.0
2017-Nov-15 17:30N 40°46' W 073°60'0 0.0
2017-Nov-15 16:57N 40°46' W 073°60'0 0.0
2017-Nov-15 16:30N 40°46' W 073°60'0 0.0
2017-Nov-15 16:00N 40°46' W 073°60'0 0.0
2017-Nov-15 15:30N 40°46' W 073°60'0 0.0
2017-Nov-15 15:00N 40°46' W 073°60'0 0.0
2017-Nov-15 14:30N 40°46' W 073°60'0 0.0
2017-Nov-15 14:00N 40°46' W 073°60'0 0.0
2017-Nov-15 13:30N 40°46' W 073°60'0 0.0
2017-Nov-15 13:00N 40°46' W 073°60'0 0.0
2017-Nov-15 12:30N 40°46' W 073°60'0 0.0
2017-Nov-15 12:00N 40°46' W 073°60'0 0.0
2017-Nov-15 11:30N 40°46' W 073°60'0 0.0
2017-Nov-15 11:00N 40°46' W 073°60'0 0.0
2017-Nov-15 10:30N 40°46' W 073°60'0 0.0
2017-Nov-15 10:00N 40°46' W 073°60'0 0.0
2017-Nov-15 09:30N 40°46' W 073°60'0 0.0
2017-Nov-15 09:00N 40°46' W 073°60'0 0.0
2017-Nov-15 08:30N 40°46' W 073°60'0 0.0
2017-Nov-15 08:00N 40°46' W 073°60'0 0.0
2017-Nov-15 07:30N 40°46' W 073°60'0 0.0
2017-Nov-15 07:00N 40°46' W 073°60'0 0.0
2017-Nov-15 06:27N 40°46' W 073°60'0 0.0
2017-Nov-15 06:00N 40°46' W 073°60'0 0.0
2017-Nov-15 05:30N 40°46' W 073°60'0 0.0
2017-Nov-15 05:00N 40°46' W 073°60'0 0.0
2017-Nov-15 04:27N 40°46' W 073°60'0 0.0
2017-Nov-15 04:00N 40°46' W 073°60'0 0.0
2017-Nov-15 03:30N 40°46' W 073°60'0 0.0
2017-Nov-15 03:00N 40°46' W 073°60'0 0.0
2017-Nov-15 02:27N 40°46' W 073°60'0 0.0
2017-Nov-15 02:00N 40°46' W 073°60'0 0.0
2017-Nov-15 01:27N 40°46' W 073°60'0 0.0
2017-Nov-15 01:00N 40°46' W 073°60'0 0.0
2017-Nov-15 00:30N 40°46' W 073°60'0 0.0
2017-Nov-14 23:57N 40°46' W 073°60'0 0.0
2017-Nov-14 23:24N 40°46' W 073°60'0 0.0
2017-Nov-14 22:57N 40°46' W 073°60'0 0.0
2017-Nov-14 22:27N 40°46' W 073°60'0 0.0
2017-Nov-14 22:00N 40°46' W 073°60'0 0.0
2017-Nov-14 21:30N 40°46' W 073°60'0 0.2
2017-Nov-14 21:01N 40°46' W 074°00'1 2.2
2017-Nov-14 20:31N 40°45' W 074°01'510.0
2017-Nov-14 20:01N 40°40' W 074°03'612.5
2017-Nov-14 19:30N 40°34' W 074°02'815.2
2017-Nov-14 19:00N 40°29' W 073°54'510.4
2017-Nov-14 18:30N 40°27' W 073°48'5 8.8
2017-Nov-14 17:54N 40°27' W 073°41'6817.4
2017-Nov-14 14:00N 40°24' W 072°12'8220.6 050 / 271026.1 5.4 10.0
2017-Nov-14 10:00N 40°30' W 070°24'10512.1 050 / 261023.010.8 11.0 14.0
2017-Nov-14 01:14N 42°14' W 069°60'2417.3
2017-Nov-13 23:52N 42°19' W 070°31'718.3
2017-Nov-13 23:30N 42°20' W 070°40'918.0
2017-Nov-13 23:00N 42°23' W 070°52'611.2
2017-Nov-13 22:30N 42°20' W 070°58'3 5.9
2017-Nov-13 22:00N 42°21' W 071°02'39612.4
2017-Nov-12 14:00N 42°24' W 062°06'10617.7 350 / 91032.110.8 9.0
2017-Nov-12 08:00N 42°24' W 059°42'37221.9 360 / 141030.110.8 7.0 14.0
2017-Nov-11 15:00N 42°36' W 051°18'11519.1 330 / 101014.1 1.1 18.0
2017-Nov-11 09:00N 42°42' W 048°42'   180 / 401016.310.8

Dump ship's entire track history